sensor_id;sensor_type;location;lat;lon;timestamp;temperature;humidity
4520;DHT22;2272;49.226;8.108;2023-06-01T00:58:26;16.20;86.10
4520;DHT22;2272;49.226;8.108;2023-06-01T01:00:57;16.30;85.90
4520;DHT22;2272;49.226;8.108;2023-06-01T01:03:27;16.40;85.70
4520;DHT22;2272;49.226;8.108;2023-06-01T01:06:05;16.50;85.30
4520;DHT22;2272;49.226;8.108;2023-06-01T01:08:42;16.50;85.30
4520;DHT22;2272;49.226;8.108;2023-06-01T01:11:15;16.50;85.30
4520;DHT22;2272;49.226;8.108;2023-06-01T01:13:48;16.50;85.70
4520;DHT22;2272;49.226;8.108;2023-06-01T01:17:01;16.40;85.80
4520;DHT22;2272;49.226;8.108;2023-06-01T01:26:05;16.10;86.80
4520;DHT22;2272;49.226;8.108;2023-06-01T01:28:43;15.90;87.30
4520;DHT22;2272;49.226;8.108;2023-06-01T01:31:16;15.80;87.80
4520;DHT22;2272;49.226;8.108;2023-06-01T01:33:47;15.70;88.10
4520;DHT22;2272;49.226;8.108;2023-06-01T01:36:19;15.60;88.50
4520;DHT22;2272;49.226;8.108;2023-06-01T01:38:47;15.50;88.90
4520;DHT22;2272;49.226;8.108;2023-06-01T01:41:14;15.40;89.10
4520;DHT22;2272;49.226;8.108;2023-06-01T01:43:43;15.40;89.10
4520;DHT22;2272;49.226;8.108;2023-06-01T01:46:21;15.20;89.20
4520;DHT22;2272;49.226;8.108;2023-06-01T01:48:56;15.20;89.70
4520;DHT22;2272;49.226;8.108;2023-06-01T01:51:29;15.10;90.20
4520;DHT22;2272;49.226;8.108;2023-06-01T01:53:57;15.00;90.00
4520;DHT22;2272;49.226;8.108;2023-06-01T01:56:25;15.00;90.00
4520;DHT22;2272;49.226;8.108;2023-06-01T01:58:55;15.00;90.10
4520;DHT22;2272;49.226;8.108;2023-06-01T02:01:22;14.90;90.20
4520;DHT22;2272;49.226;8.108;2023-06-01T02:03:58;14.80;90.20
4520;DHT22;2272;49.226;8.108;2023-06-01T02:06:25;14.70;90.30
4520;DHT22;2272;49.226;8.108;2023-06-01T02:08:52;14.60;90.50
4520;DHT22;2272;49.226;8.108;2023-06-01T02:11:19;14.50;90.50
4520;DHT22;2272;49.226;8.108;2023-06-01T02:13:46;14.50;90.60
4520;DHT22;2272;49.226;8.108;2023-06-01T02:16:15;14.60;90.80
4520;DHT22;2272;49.226;8.108;2023-06-01T02:18:43;14.60;90.80
4520;DHT22;2272;49.226;8.108;2023-06-01T02:21:12;14.60;90.90
4520;DHT22;2272;49.226;8.108;2023-06-01T02:23:39;14.50;91.10
4520;DHT22;2272;49.226;8.108;2023-06-01T02:26:06;14.40;91.20
4520;DHT22;2272;49.226;8.108;2023-06-01T02:28:33;14.40;91.20
4520;DHT22;2272;49.226;8.108;2023-06-01T02:31:00;14.30;91.30
4520;DHT22;2272;49.226;8.108;2023-06-01T02:33:28;14.20;91.30
4520;DHT22;2272;49.226;8.108;2023-06-01T02:35:55;14.20;91.60
4520;DHT22;2272;49.226;8.108;2023-06-01T02:38:26;14.10;91.60
4520;DHT22;2272;49.226;8.108;2023-06-01T02:41:08;14.00;91.80
4520;DHT22;2272;49.226;8.108;2023-06-01T02:43:35;13.90;92.20
4520;DHT22;2272;49.226;8.108;2023-06-01T02:46:02;13.90;92.20
4520;DHT22;2272;49.226;8.108;2023-06-01T02:48:37;13.80;92.20
4520;DHT22;2272;49.226;8.108;2023-06-01T09:13:03;24.60;73.70
4520;DHT22;2272;49.226;8.108;2023-06-01T09:15:54;24.70;74.90
4520;DHT22;2272;49.226;8.108;2023-06-01T09:18:34;24.80;74.60
4520;DHT22;2272;49.226;8.108;2023-06-01T09:21:27;24.90;73.50
4520;DHT22;2272;49.226;8.108;2023-06-01T09:24:18;24.70;72.20
4520;DHT22;2272;49.226;8.108;2023-06-01T09:27:03;24.70;74.10
4520;DHT22;2272;49.226;8.108;2023-06-01T09:29:36;25.00;73.40
4520;DHT22;2272;49.226;8.108;2023-06-01T09:32:19;25.10;71.60
4520;DHT22;2272;49.226;8.108;2023-06-01T09:34:50;25.00;71.70
4520;DHT22;2272;49.226;8.108;2023-06-01T09:38:20;25.10;72.10
4520;DHT22;2272;49.226;8.108;2023-06-01T09:44:10;25.40;70.90
4520;DHT22;2272;49.226;8.108;2023-06-01T09:47:04;25.80;69.50
4520;DHT22;2272;49.226;8.108;2023-06-01T09:49:59;25.70;68.50
4520;DHT22;2272;49.226;8.108;2023-06-01T10:06:12;26.50;68.00
4520;DHT22;2272;49.226;8.108;2023-06-01T10:08:39;26.70;67.00
4520;DHT22;2272;49.226;8.108;2023-06-01T10:11:07;26.80;66.40
4520;DHT22;2272;49.226;8.108;2023-06-01T10:13:41;27.10;65.90
4520;DHT22;2272;49.226;8.108;2023-06-01T10:16:08;27.20;63.60
4520;DHT22;2272;49.226;8.108;2023-06-01T10:18:42;27.10;62.10
4520;DHT22;2272;49.226;8.108;2023-06-01T10:21:11;27.20;61.30
4520;DHT22;2272;49.226;8.108;2023-06-01T15:39:21;28.90;53.60
4520;DHT22;2272;49.226;8.108;2023-06-01T15:45:29;28.90;53.40
4520;DHT22;2272;49.226;8.108;2023-06-01T15:48:02;29.10;53.70
4520;DHT22;2272;49.226;8.108;2023-06-01T15:50:43;29.10;52.40
4520;DHT22;2272;49.226;8.108;2023-06-01T15:53:47;29.00;52.90
4520;DHT22;2272;49.226;8.108;2023-06-01T15:56:55;29.10;52.40
4520;DHT22;2272;49.226;8.108;2023-06-01T16:12:21;28.80;53.60
4520;DHT22;2272;49.226;8.108;2023-06-01T16:14:48;28.80;52.90
4520;DHT22;2272;49.226;8.108;2023-06-01T16:17:15;29.10;52.60
4520;DHT22;2272;49.226;8.108;2023-06-01T16:20:09;29.50;51.90
4520;DHT22;2272;49.226;8.108;2023-06-01T16:22:40;30.00;51.60
4520;DHT22;2272;49.226;8.108;2023-06-01T16:25:09;30.60;51.10
4520;DHT22;2272;49.226;8.108;2023-06-01T16:27:41;31.50;50.00
4520;DHT22;2272;49.226;8.108;2023-06-01T16:30:12;32.20;48.30
4520;DHT22;2272;49.226;8.108;2023-06-01T16:32:53;32.80;46.70
4520;DHT22;2272;49.226;8.108;2023-06-01T16:35:36;32.90;46.80
4520;DHT22;2272;49.226;8.108;2023-06-01T16:38:23;32.80;47.20
4520;DHT22;2272;49.226;8.108;2023-06-01T16:44:56;33.00;47.30
4520;DHT22;2272;49.226;8.108;2023-06-01T16:47:31;33.40;47.40
4520;DHT22;2272;49.226;8.108;2023-06-01T21:04:06;19.10;74.20
4520;DHT22;2272;49.226;8.108;2023-06-01T21:06:38;19.10;74.50
4520;DHT22;2272;49.226;8.108;2023-06-01T21:09:19;19.00;74.10
4520;DHT22;2272;49.226;8.108;2023-06-01T21:11:51;19.00;73.90
4520;DHT22;2272;49.226;8.108;2023-06-01T21:14:23;19.00;74.30
4520;DHT22;2272;49.226;8.108;2023-06-01T21:16:51;19.00;74.50
4520;DHT22;2272;49.226;8.108;2023-06-01T21:19:19;18.90;74.60
4520;DHT22;2272;49.226;8.108;2023-06-01T21:22:03;18.80;74.70
4520;DHT22;2272;49.226;8.108;2023-06-01T21:24:30;18.80;74.80
4520;DHT22;2272;49.226;8.108;2023-06-01T21:26:57;18.80;75.10
4520;DHT22;2272;49.226;8.108;2023-06-01T21:29:27;18.70;75.30
4520;DHT22;2272;49.226;8.108;2023-06-01T21:31:54;18.60;75.60
4520;DHT22;2272;49.226;8.108;2023-06-01T21:34:22;18.50;75.80
4520;DHT22;2272;49.226;8.108;2023-06-01T21:36:51;18.50;76.10
4520;DHT22;2272;49.226;8.108;2023-06-01T21:39:20;18.40;76.30
4520;DHT22;2272;49.226;8.108;2023-06-01T21:42:03;18.30;76.50
4520;DHT22;2272;49.226;8.108;2023-06-01T21:44:52;18.20;76.40
4520;DHT22;2272;49.226;8.108;2023-06-01T21:47:28;18.20;76.10
4520;DHT22;2272;49.226;8.108;2023-06-01T21:49:58;18.20;76.30
4520;DHT22;2272;49.226;8.108;2023-06-01T21:52:25;18.20;76.40
4520;DHT22;2272;49.226;8.108;2023-06-01T21:54:55;18.10;76.70
4520;DHT22;2272;49.226;8.108;2023-06-01T21:57:33;18.00;77.80
4520;DHT22;2272;49.226;8.108;2023-06-01T22:00:08;17.80;77.00
4520;DHT22;2272;49.226;8.108;2023-06-01T22:02:44;17.80;77.50
4520;DHT22;2272;49.226;8.108;2023-06-01T22:05:13;17.70;77.70
4520;DHT22;2272;49.226;8.108;2023-06-01T22:07:41;17.60;77.90
4520;DHT22;2272;49.226;8.108;2023-06-01T22:10:08;17.50;78.00
4520;DHT22;2272;49.226;8.108;2023-06-01T22:12:36;17.40;78.20
4520;DHT22;2272;49.226;8.108;2023-06-01T22:15:05;17.30;78.20
4520;DHT22;2272;49.226;8.108;2023-06-01T22:17:35;17.30;78.50
4520;DHT22;2272;49.226;8.108;2023-06-01T22:20:06;17.20;78.50
4520;DHT22;2272;49.226;8.108;2023-06-01T22:22:51;17.20;78.40
4520;DHT22;2272;49.226;8.108;2023-06-01T22:25:21;17.20;78.10
4520;DHT22;2272;49.226;8.108;2023-06-01T22:27:48;17.20;78.10
4520;DHT22;2272;49.226;8.108;2023-06-01T22:30:15;17.20;78.10
4520;DHT22;2272;49.226;8.108;2023-06-01T22:32:42;17.10;78.20
4520;DHT22;2272;49.226;8.108;2023-06-01T22:35:12;17.10;78.40
4520;DHT22;2272;49.226;8.108;2023-06-01T22:37:39;17.00;78.40
4520;DHT22;2272;49.226;8.108;2023-06-01T22:40:11;17.00;78.50
4520;DHT22;2272;49.226;8.108;2023-06-01T22:42:38;17.00;78.70
4520;DHT22;2272;49.226;8.108;2023-06-01T22:45:14;17.00;79.60
4520;DHT22;2272;49.226;8.108;2023-06-01T22:47:41;16.90;79.20
4520;DHT22;2272;49.226;8.108;2023-06-01T22:50:10;16.90;79.50
4520;DHT22;2272;49.226;8.108;2023-06-01T23:31:29;16.10;85.80
4520;DHT22;2272;49.226;8.108;2023-06-01T23:33:58;16.10;86.20
4520;DHT22;2272;49.226;8.108;2023-06-01T23:36:26;16.00;86.70
4520;DHT22;2272;49.226;8.108;2023-06-01T23:38:53;15.90;87.10
4520;DHT22;2272;49.226;8.108;2023-06-01T23:41:20;15.80;87.80
4520;DHT22;2272;49.226;8.108;2023-06-01T23:43:50;15.80;89.00
4520;DHT22;2272;49.226;8.108;2023-06-01T23:46:17;15.70;89.40
4520;DHT22;2272;49.226;8.108;2023-06-01T23:48:45;15.60;90.10
4520;DHT22;2272;49.226;8.108;2023-06-01T23:51:20;15.60;90.80
4520;DHT22;2272;49.226;8.108;2023-06-01T23:53:50;15.50;91.10
4520;DHT22;2272;49.226;8.108;2023-06-01T23:56:26;15.40;91.40
4520;DHT22;2272;49.226;8.108;2023-06-01T23:58:54;15.30;91.70
